Time;durP1;ratioP1;P1;durP2;ratioP2;P2;SDS_P1;SDS_P2;PMS_P1;PMS_P2;Temp;Humidity;BMP_temperature;BMP_pressure;BME280_temperature;BME280_humidity;BME280_pressure;Samples;Min_cycle;Max_cycle;Signal;HPM_P1;HPM_P2
2022/02/10 00:06:07;;;;;;;3.92;1.90;;;;;;;7.44;100.00;98935.59;10356884;28;20092;-61
2022/02/10 00:17:00;;;;;;;2.60;1.80;;;;;;;7.46;100.00;98927.47;10360174;28;20049;-59
2022/02/10 00:22:07;;;;;;;2.70;1.80;;;;;;;7.44;100.00;98924.06;10359516;28;20121;-60
2022/02/10 00:37:58;;;;;;;2.33;1.70;;;;;;;7.38;100.00;98920.88;10356774;28;20042;-55
2022/02/10 00:43:05;;;;;;;2.88;1.63;;;;;;;7.37;100.00;98919.19;10362999;28;20049;-59
2022/02/10 00:48:11;;;;;;;3.05;1.80;;;;;;;7.36;100.00;98925.53;10366200;28;20117;-57
2022/02/10 00:53:18;;;;;;;2.85;2.03;;;;;;;7.36;100.00;98922.84;10362268;28;20542;-58
2022/02/10 00:58:25;;;;;;;2.05;1.80;;;;;;;7.34;100.00;98924.81;10367063;28;20121;-57
2022/02/10 01:14:33;;;;;;;1.92;1.67;;;;;;;7.52;100.00;98921.56;10364444;28;19925;-58
2022/02/10 01:30:15;;;;;;;4.30;1.90;;;;;;;7.65;100.00;98903.47;10363975;28;20046;-59
2022/02/10 01:35:23;;;;;;;4.15;1.98;;;;;;;7.62;100.00;98901.03;10361801;28;20126;-58
2022/02/10 01:40:34;;;;;;;2.35;1.92;;;;;;;7.61;100.00;98891.28;10365066;28;20101;-61
2022/02/10 02:07:07;;;;;;;3.20;1.90;;;;;;;7.45;100.00;98842.66;10363385;28;20129;-58
2022/02/10 02:12:11;;;;;;;6.22;2.10;;;;;;;7.41;100.00;98828.63;10345484;28;20465;-60
2022/02/10 02:17:16;;;;;;;3.17;2.08;;;;;;;7.33;100.00;98818.59;10359752;28;20062;-59
2022/02/10 02:22:20;;;;;;;3.40;1.98;;;;;;;7.28;100.00;98815.44;10360542;28;20129;-56
2022/02/10 02:27:25;;;;;;;2.17;1.88;;;;;;;7.22;100.00;98802.56;10364418;28;20046;-57
2022/02/10 02:32:34;;;;;;;4.03;2.17;;;;;;;7.06;100.00;98798.50;10362741;28;20141;-59
2022/02/10 02:38:07;;;;;;;3.05;2.17;;;;;;;6.96;100.00;98792.22;10362581;28;20116;-59
2022/02/10 03:05:01;;;;;;;2.95;2.28;;;;;;;6.46;100.00;98768.69;10360257;28;20458;-58
2022/02/10 03:10:27;;;;;;;4.30;2.30;;;;;;;6.42;100.00;98768.06;10361700;28;20121;-57
2022/02/10 03:15:37;;;;;;;3.70;2.78;;;;;;;6.36;100.00;98757.88;10359426;28;20409;-60
2022/02/10 03:20:54;;;;;;;3.22;2.42;;;;;;;6.34;100.00;98770.53;10358606;28;20117;-60
2022/02/10 04:04:02;;;;;;;5.18;4.20;;;;;;;5.96;100.00;98750.38;10358945;28;20121;-61
2022/02/10 04:14:36;;;;;;;5.45;4.30;;;;;;;5.72;100.00;98746.03;10319281;28;20054;-59
2022/02/10 04:25:22;;;;;;;4.85;4.22;;;;;;;5.61;100.00;98730.88;10361696;28;20100;-56
2022/02/10 04:30:48;;;;;;;4.93;4.40;;;;;;;5.51;100.00;98732.56;10368142;28;20124;-60
2022/02/10 05:08:29;;;;;;;7.10;4.43;;;;;;;5.14;100.00;98680.19;10364050;28;20074;-57
2022/02/10 05:24:39;;;;;;;7.40;5.00;;;;;;;4.92;100.00;98671.19;10363177;28;20047;-60
2022/02/10 05:35:16;;;;;;;7.10;5.20;;;;;;;4.87;100.00;98667.19;10360595;28;19921;-58
2022/02/10 05:40:36;;;;;;;6.32;4.65;;;;;;;4.90;100.00;98667.78;10364463;28;20069;-59
2022/02/10 05:45:45;;;;;;;6.75;5.00;;;;;;;4.84;100.00;98656.75;10361207;28;20191;-60
2022/02/10 05:51:26;;;;;;;8.00;5.00;;;;;;;4.77;100.00;98656.38;10364272;28;20041;-59
2022/02/10 05:56:36;;;;;;;5.72;5.07;;;;;;;4.74;100.00;98645.94;10361954;28;20058;-59
2022/02/10 06:50:20;;;;;;;8.02;5.28;;;;;;;4.05;100.00;98610.22;10360102;28;20099;-62
2022/02/10 06:55:52;;;;;;;5.88;4.90;;;;;;;3.98;100.00;98611.66;10356987;28;20633;-62
2022/02/10 07:06:40;;;;;;;7.07;5.30;;;;;;;3.85;100.00;98598.38;10355618;28;20041;-63
2022/02/10 07:54:39;;;;;;;6.30;4.70;;;;;;;4.15;100.00;98578.38;10322700;28;20054;-59
2022/02/10 08:59:59;;;;;;;6.68;3.40;;;;;;;5.82;100.00;98557.16;10329697;28;20054;-60
2022/02/10 09:05:15;;;;;;;6.20;3.13;;;;;;;6.08;100.00;98551.50;10311827;28;20046;-60
2022/02/10 09:11:06;;;;;;;4.82;3.00;;;;;;;6.32;100.00;98547.72;10328569;28;20050;-57
2022/02/10 09:16:21;;;;;;;7.05;3.25;;;;;;;6.48;100.00;98552.59;10306721;28;20406;-61
2022/02/10 09:59:24;;;;;;;4.05;2.42;;;;;;;7.29;100.00;98516.97;10327882;28;20775;-62
2022/02/10 10:04:34;;;;;;;5.88;2.45;;;;;;;7.33;100.00;98536.31;10326525;28;20046;-60
2022/02/10 10:09:50;;;;;;;6.25;2.97;;;;;;;7.55;100.00;98508.41;10324922;28;20038;-61
2022/02/10 10:15:27;;;;;;;5.97;3.15;;;;;;;7.67;100.00;98512.66;10323129;28;20054;-56
2022/02/10 10:20:43;;;;;;;5.28;2.60;;;;;;;7.77;100.00;98511.81;10321922;28;20527;-62
2022/02/10 10:53:12;;;;;;;5.53;2.70;;;;;;;7.74;100.00;98478.06;10305045;28;20038;-58
2022/02/10 10:58:31;;;;;;;7.15;2.97;;;;;;;7.72;100.00;98472.00;10291610;28;20512;-61
2022/02/10 11:41:37;;;;;;;5.10;2.72;;;;;;;7.31;100.00;98469.44;10276865;28;20047;-60
2022/02/10 12:32:06;;;;;;;7.57;4.38;;;;;;;6.75;100.00;98487.78;10295883;28;20442;-61
2022/02/10 12:36:54;;;;;;;7.32;4.55;;;;;;;6.67;100.00;98498.31;10317760;28;20475;-62
2022/02/10 12:42:36;;;;;;;6.63;4.05;;;;;;;6.58;100.00;98505.34;10321979;28;20125;-62
2022/02/10 14:09:16;;;;;;;9.15;4.82;;;;;;;6.27;100.00;98557.97;10306329;28;20097;-60
2022/02/10 14:14:27;;;;;;;9.32;5.00;;;;;;;6.25;100.00;98567.97;10322623;28;20129;-64
2022/02/10 14:19:37;;;;;;;10.13;5.40;;;;;;;6.15;100.00;98576.75;10321881;28;20121;-59
2022/02/10 14:30:02;;;;;;;8.55;5.30;;;;;;;6.10;100.00;98597.69;10321038;28;20138;-64
2022/02/10 14:35:13;;;;;;;7.55;5.57;;;;;;;6.05;100.00;98597.25;10318703;28;20062;-65
2022/02/10 14:40:43;;;;;;;9.15;5.70;;;;;;;6.03;100.00;98588.50;10320798;28;20062;-63
2022/02/10 15:56:03;;;;;;;8.73;3.55;;;;;;;6.03;100.00;98591.16;10284814;28;20540;-60
2022/02/10 16:12:39;;;;;;;5.30;4.00;;;;;;;5.94;100.00;98608.78;10322224;28;20121;-65
2022/02/10 16:17:23;;;;;;;7.07;3.90;;;;;;;5.97;100.00;98610.34;10323933;28;20123;-67
2022/02/10 16:22:36;;;;;;;8.90;4.57;;;;;;;5.95;100.00;98620.31;10325106;28;20042;-66
2022/02/10 16:27:48;;;;;;;6.90;4.90;;;;;;;5.92;100.00;98609.91;10308229;28;20038;-64
2022/02/10 16:32:54;;;;;;;5.20;4.18;;;;;;;5.94;100.00;98607.97;10323334;28;20082;-62
2022/02/10 16:38:03;;;;;;;7.13;4.72;;;;;;;5.97;100.00;98602.31;10326102;28;20048;-61
2022/02/10 16:43:13;;;;;;;6.50;5.00;;;;;;;5.96;100.00;98601.50;10324830;28;20042;-63
2022/02/10 16:48:21;;;;;;;8.35;5.68;;;;;;;5.98;100.00;98612.06;10321452;28;20141;-62
2022/02/10 16:53:31;;;;;;;7.93;5.45;;;;;;;5.99;100.00;98611.97;10324751;28;20387;-65
2022/02/10 16:58:45;;;;;;;8.65;5.43;;;;;;;6.00;100.00;98612.81;10324465;28;20066;-70
2022/02/10 17:04:29;;;;;;;7.45;5.60;;;;;;;5.93;100.00;98617.78;10305401;28;20597;-64
2022/02/10 17:20:40;;;;;;;10.30;6.03;;;;;;;5.86;100.00;98620.13;10285293;28;20068;-69
2022/02/10 17:25:48;;;;;;;10.18;5.72;;;;;;;5.83;100.00;98619.53;10322408;28;20407;-68
2022/02/10 17:31:06;;;;;;;10.57;6.43;;;;;;;5.79;100.00;98624.28;10322726;28;20139;-68
2022/02/10 17:36:14;;;;;;;8.13;6.38;;;;;;;5.75;100.00;98630.84;10318801;28;21207;-64
2022/02/10 17:41:43;;;;;;;8.93;6.88;;;;;;;5.69;100.00;98632.19;10322402;28;20046;-64
2022/02/10 17:52:17;;;;;;;12.50;7.80;;;;;;;5.63;100.00;98643.41;10266111;28;20062;-66
2022/02/10 17:57:22;;;;;;;10.55;8.68;;;;;;;5.60;100.00;98648.13;10318815;28;20053;-68
2022/02/10 18:02:25;;;;;;;11.80;8.50;;;;;;;5.53;100.00;98651.31;10320689;28;20910;-67
2022/02/10 18:07:28;;;;;;;11.40;9.30;;;;;;;5.49;100.00;98644.50;10301592;28;20141;-66
2022/02/10 18:17:58;;;;;;;12.93;9.63;;;;;;;5.42;100.00;98656.66;10319636;28;20038;-64
2022/02/10 18:23:11;;;;;;;11.55;9.90;;;;;;;5.42;100.00;98655.78;10320840;28;20137;-65
2022/02/10 19:06:58;;;;;;;16.35;12.60;;;;;;;5.17;100.00;98666.63;10222326;28;20065;-66
2022/02/10 19:12:06;;;;;;;14.98;12.05;;;;;;;5.19;100.00;98658.47;10298214;28;20105;-67
2022/02/10 19:17:11;;;;;;;17.10;12.75;;;;;;;5.17;100.00;98658.59;10318808;28;20150;-69
2022/02/10 19:22:14;;;;;;;16.45;13.02;;;;;;;5.17;100.00;98663.94;10321279;28;20141;-66
2022/02/10 19:27:17;;;;;;;15.27;12.82;;;;;;;5.19;100.00;98658.47;10318155;28;20161;-67
2022/02/10 19:32:22;;;;;;;17.17;12.70;;;;;;;5.16;100.00;98656.91;10301921;28;20061;-64
2022/02/10 19:37:27;;;;;;;15.60;12.43;;;;;;;5.21;100.00;98651.19;10322047;28;20478;-65
2022/02/10 19:42:35;;;;;;;15.52;12.45;;;;;;;5.21;100.00;98651.19;10303756;28;20069;-68
2022/02/10 19:47:40;;;;;;;14.80;12.35;;;;;;;5.22;100.00;98645.75;10319210;28;20137;-66
2022/02/10 19:52:48;;;;;;;20.13;13.93;;;;;;;5.15;100.00;98636.50;10320965;28;20049;-65
2022/02/10 19:57:55;;;;;;;18.52;14.48;;;;;;;5.15;100.00;98651.69;10304098;28;20050;-66
2022/02/10 20:03:01;;;;;;;17.65;13.20;;;;;;;5.16;100.00;98645.38;10318376;28;20525;-63
2022/02/10 20:08:05;;;;;;;13.70;12.20;;;;;;;5.17;100.00;98642.56;10321576;28;20117;-65
2022/02/10 20:13:16;;;;;;;15.20;12.32;;;;;;;5.22;100.00;98645.75;10321323;28;20053;-64
2022/02/10 20:18:24;;;;;;;13.45;10.25;;;;;;;5.24;100.00;98637.59;10321535;28;20411;-63
2022/02/10 20:23:30;;;;;;;13.65;10.45;;;;;;;5.24;100.00;98637.59;10320681;28;20533;-64
2022/02/10 20:28:43;;;;;;;11.63;10.43;;;;;;;5.24;100.00;98641.09;10345762;22;20513;-61
2022/02/10 20:33:48;;;;;;;11.20;10.00;;;;;;;5.27;100.00;98641.84;10392018;28;20096;-63
2022/02/10 20:38:56;;;;;;;12.60;10.43;;;;;;;5.30;100.00;98636.25;10392485;28;20118;-60
2022/02/10 20:44:01;;;;;;;13.75;11.02;;;;;;;5.30;100.00;98625.56;10365999;28;20331;-64
2022/02/10 20:49:14;;;;;;;13.18;11.77;;;;;;;5.31;100.00;98625.44;10366000;28;20053;-62
2022/02/10 20:54:18;;;;;;;15.02;12.07;;;;;;;5.33;100.00;98625.34;10362834;28;20049;-61
2022/02/10 20:59:27;;;;;;;15.13;12.20;;;;;;;5.32;100.00;98624.47;10375972;28;20673;-59
2022/02/10 21:04:34;;;;;;;14.27;12.77;;;;;;;5.30;100.00;98630.91;10373133;28;20212;-59
2022/02/10 21:09:41;;;;;;;14.55;12.68;;;;;;;5.31;100.00;98630.78;10377541;28;20041;-62
2022/02/10 21:14:46;;;;;;;15.38;12.73;;;;;;;5.31;100.00;98629.94;10378372;28;20127;-62
2022/02/10 21:19:50;;;;;;;14.85;12.18;;;;;;;5.34;100.00;98643.06;10394042;28;20121;-61
2022/02/10 21:24:58;;;;;;;15.02;12.27;;;;;;;5.34;100.00;98635.06;10386609;28;20046;-63
2022/02/10 21:30:04;;;;;;;14.02;11.15;;;;;;;5.34;100.00;98630.56;10394706;28;20072;-62
2022/02/10 21:35:24;;;;;;;14.30;10.50;;;;;;;5.35;100.00;98634.09;10379936;28;20502;-63
2022/02/10 21:40:56;;;;;;;15.45;12.55;;;;;;;5.34;100.00;98627.88;10393003;28;20529;-63
2022/02/10 22:23:44;;;;;;;3.17;2.88;;;;;;;4.16;100.00;98623.59;10370116;28;20879;-66
2022/02/10 22:28:53;;;;;;;3.88;3.00;;;;;;;4.10;100.00;98631.19;10370837;28;20826;-65
2022/02/10 22:34:10;;;;;;;4.55;3.40;;;;;;;4.11;100.00;98632.91;10371112;28;20059;-65
2022/02/10 22:39:15;;;;;;;4.50;2.25;;;;;;;3.93;100.00;98636.00;10374262;28;20049;-65
2022/02/10 22:44:18;;;;;;;4.22;3.60;;;;;;;4.03;100.00;98637.97;10373755;28;20098;-64
2022/02/10 22:49:21;;;;;;;5.47;3.92;;;;;;;3.97;100.00;98644.59;10376859;28;20057;-66
2022/02/10 22:54:26;;;;;;;7.68;5.50;;;;;;;3.93;100.00;98646.66;10379671;28;20070;-65
2022/02/10 22:59:29;;;;;;;7.65;4.28;;;;;;;3.93;100.00;98651.13;10379720;28;20494;-64
2022/02/10 23:04:32;;;;;;;5.38;3.42;;;;;;;3.96;100.00;98645.56;10377793;28;20133;-66
2022/02/10 23:09:41;;;;;;;4.97;3.53;;;;;;;3.95;100.00;98639.38;10383323;28;20469;-65
2022/02/10 23:14:44;;;;;;;7.85;3.67;;;;;;;3.90;100.00;98635.34;10378386;28;20069;-64
2022/02/10 23:19:47;;;;;;;6.85;3.45;;;;;;;3.77;100.00;98640.75;10385049;28;20074;-66
2022/02/10 23:24:51;;;;;;;3.75;1.70;;;;;;;3.80;100.00;98645.84;10384235;28;20050;-64
2022/02/10 23:29:54;;;;;;;2.35;1.60;;;;;;;3.66;100.00;98645.03;10390232;28;20059;-65
2022/02/10 23:35:00;;;;;;;2.70;1.70;;;;;;;3.69;100.00;98639.50;10385361;28;20045;-65
2022/02/10 23:40:09;;;;;;;2.95;1.80;;;;;;;3.63;100.00;98628.44;10393614;28;20422;-64
2022/02/10 23:45:18;;;;;;;4.57;2.83;;;;;;;3.62;100.00;98627.56;10375392;28;20057;-65
2022/02/10 23:50:26;;;;;;;7.20;3.60;;;;;;;3.58;100.00;98630.56;10394964;28;20034;-66
2022/02/10 23:55:34;;;;;;;5.72;3.90;;;;;;;3.55;100.00;98621.84;10389351;28;20124;-65
